sensor_id;sensor_type;location;lat;lon;timestamp;P1;durP1;ratioP1;P2;durP2;ratioP2
50900;SDS011;36879;51.416;6.678;2023-04-01T00:02:20;12.90;;;3.50;;
50900;SDS011;36879;51.416;6.678;2023-04-01T00:04:46;10.77;;;3.78;;
50900;SDS011;36879;51.416;6.678;2023-04-01T00:07:12;8.50;;;3.10;;
50900;SDS011;36879;51.416;6.678;2023-04-01T00:09:38;6.47;;;3.88;;
50900;SDS011;36879;51.416;6.678;2023-04-01T00:12:04;6.90;;;2.75;;
50900;SDS011;36879;51.416;6.678;2023-04-01T00:14:30;5.40;;;2.55;;
50900;SDS011;36879;51.416;6.678;2023-04-01T00:16:56;8.65;;;2.00;;
50900;SDS011;36879;51.416;6.678;2023-04-01T00:19:22;10.18;;;3.67;;
50900;SDS011;36879;51.416;6.678;2023-04-01T00:21:48;9.65;;;3.50;;
50900;SDS011;36879;51.416;6.678;2023-04-01T00:24:14;7.15;;;2.35;;
50900;SDS011;36879;51.416;6.678;2023-04-01T00:26:40;11.77;;;2.90;;
50900;SDS011;36879;51.416;6.678;2023-04-01T00:29:07;3.80;;;1.90;;
50900;SDS011;36879;51.416;6.678;2023-04-01T00:31:33;3.58;;;1.40;;
50900;SDS011;36879;51.416;6.678;2023-04-01T00:34:00;3.97;;;1.30;;
50900;SDS011;36879;51.416;6.678;2023-04-01T00:36:26;4.95;;;1.92;;
50900;SDS011;36879;51.416;6.678;2023-04-01T00:38:52;7.88;;;2.67;;
50900;SDS011;36879;51.416;6.678;2023-04-01T00:41:18;4.45;;;1.83;;
50900;SDS011;36879;51.416;6.678;2023-04-01T00:43:47;4.25;;;1.70;;
50900;SDS011;36879;51.416;6.678;2023-04-01T00:46:13;4.28;;;1.35;;
50900;SDS011;36879;51.416;6.678;2023-04-01T00:48:41;8.20;;;2.28;;
50900;SDS011;36879;51.416;6.678;2023-04-01T00:51:17;5.40;;;1.88;;
50900;SDS011;36879;51.416;6.678;2023-04-01T00:53:45;6.40;;;2.38;;
50900;SDS011;36879;51.416;6.678;2023-04-01T00:56:13;3.97;;;1.55;;
50900;SDS011;36879;51.416;6.678;2023-04-01T00:58:41;3.35;;;1.55;;
50900;SDS011;36879;51.416;6.678;2023-04-01T01:01:08;2.88;;;1.30;;
50900;SDS011;36879;51.416;6.678;2023-04-01T01:03:35;7.13;;;2.50;;
50900;SDS011;36879;51.416;6.678;2023-04-01T01:08:39;10.23;;;1.75;;
50900;SDS011;36879;51.416;6.678;2023-04-01T01:11:09;3.55;;;1.58;;
50900;SDS011;36879;51.416;6.678;2023-04-01T01:16:15;8.17;;;1.60;;
50900;SDS011;36879;51.416;6.678;2023-04-01T01:29:06;6.70;;;2.47;;
50900;SDS011;36879;51.416;6.678;2023-04-01T01:31:47;4.38;;;1.60;;
50900;SDS011;36879;51.416;6.678;2023-04-01T01:34:19;5.72;;;1.75;;
50900;SDS011;36879;51.416;6.678;2023-04-01T01:36:48;3.20;;;1.55;;
50900;SDS011;36879;51.416;6.678;2023-04-01T01:39:16;7.50;;;2.65;;
50900;SDS011;36879;51.416;6.678;2023-04-01T01:41:43;2.28;;;1.38;;
50900;SDS011;36879;51.416;6.678;2023-04-01T01:44:11;6.20;;;1.48;;
50900;SDS011;36879;51.416;6.678;2023-04-01T01:46:38;5.82;;;1.63;;
50900;SDS011;36879;51.416;6.678;2023-04-01T01:49:06;5.53;;;1.05;;
50900;SDS011;36879;51.416;6.678;2023-04-01T01:51:33;2.92;;;1.10;;
50900;SDS011;36879;51.416;6.678;2023-04-01T01:53:59;2.72;;;1.40;;
50900;SDS011;36879;51.416;6.678;2023-04-01T01:56:26;2.03;;;1.33;;
50900;SDS011;36879;51.416;6.678;2023-04-01T01:58:58;4.28;;;1.08;;
50900;SDS011;36879;51.416;6.678;2023-04-01T02:01:26;2.47;;;1.13;;
50900;SDS011;36879;51.416;6.678;2023-04-01T02:03:53;4.55;;;1.17;;
50900;SDS011;36879;51.416;6.678;2023-04-01T02:06:21;3.53;;;1.00;;
50900;SDS011;36879;51.416;6.678;2023-04-01T02:08:57;1.05;;;0.80;;
50900;SDS011;36879;51.416;6.678;2023-04-01T02:11:26;4.18;;;1.23;;
50900;SDS011;36879;51.416;6.678;2023-04-01T02:13:54;3.00;;;1.05;;
50900;SDS011;36879;51.416;6.678;2023-04-01T02:16:32;4.93;;;1.25;;
50900;SDS011;36879;51.416;6.678;2023-04-01T02:19:00;4.15;;;1.33;;
50900;SDS011;36879;51.416;6.678;2023-04-01T02:21:27;8.50;;;1.65;;
50900;SDS011;36879;51.416;6.678;2023-04-01T02:23:56;8.45;;;2.30;;
50900;SDS011;36879;51.416;6.678;2023-04-01T02:26:23;7.20;;;1.40;;
50900;SDS011;36879;51.416;6.678;2023-04-01T02:28:51;5.93;;;1.60;;
50900;SDS011;36879;51.416;6.678;2023-04-01T02:31:18;8.10;;;1.63;;
50900;SDS011;36879;51.416;6.678;2023-04-01T02:33:44;3.78;;;1.17;;
50900;SDS011;36879;51.416;6.678;2023-04-01T02:36:12;3.60;;;1.70;;
50900;SDS011;36879;51.416;6.678;2023-04-01T02:38:38;2.92;;;1.20;;
50900;SDS011;36879;51.416;6.678;2023-04-01T02:41:04;2.60;;;0.80;;
50900;SDS011;36879;51.416;6.678;2023-04-01T02:43:31;2.85;;;1.65;;
50900;SDS011;36879;51.416;6.678;2023-04-01T02:45:57;3.42;;;1.05;;
50900;SDS011;36879;51.416;6.678;2023-04-01T02:48:23;4.82;;;1.10;;
50900;SDS011;36879;51.416;6.678;2023-04-01T02:50:49;5.45;;;1.73;;
50900;SDS011;36879;51.416;6.678;2023-04-01T02:53:15;5.82;;;1.48;;
50900;SDS011;36879;51.416;6.678;2023-04-01T02:55:41;4.32;;;1.80;;
50900;SDS011;36879;51.416;6.678;2023-04-01T02:58:07;3.40;;;1.73;;
50900;SDS011;36879;51.416;6.678;2023-04-01T03:00:33;7.80;;;2.85;;
50900;SDS011;36879;51.416;6.678;2023-04-01T03:02:59;4.28;;;1.95;;
50900;SDS011;36879;51.416;6.678;2023-04-01T03:05:25;6.38;;;2.47;;
50900;SDS011;36879;51.416;6.678;2023-04-01T03:07:51;4.72;;;1.90;;
50900;SDS011;36879;51.416;6.678;2023-04-01T03:10:17;4.70;;;1.95;;
50900;SDS011;36879;51.416;6.678;2023-04-01T03:12:43;5.75;;;2.30;;
50900;SDS011;36879;51.416;6.678;2023-04-01T03:15:12;7.03;;;2.20;;
50900;SDS011;36879;51.416;6.678;2023-04-01T03:17:42;4.35;;;1.83;;
50900;SDS011;36879;51.416;6.678;2023-04-01T03:20:08;4.43;;;1.92;;
50900;SDS011;36879;51.416;6.678;2023-04-01T03:22:35;5.28;;;1.60;;
50900;SDS011;36879;51.416;6.678;2023-04-01T03:25:02;4.68;;;2.20;;
50900;SDS011;36879;51.416;6.678;2023-04-01T03:27:28;6.90;;;1.60;;
50900;SDS011;36879;51.416;6.678;2023-04-01T03:29:54;6.35;;;2.05;;
50900;SDS011;36879;51.416;6.678;2023-04-01T03:32:20;3.53;;;1.98;;
50900;SDS011;36879;51.416;6.678;2023-04-01T03:34:46;7.53;;;1.88;;
50900;SDS011;36879;51.416;6.678;2023-04-01T03:37:12;4.25;;;2.45;;
50900;SDS011;36879;51.416;6.678;2023-04-01T03:39:38;4.45;;;1.95;;
50900;SDS011;36879;51.416;6.678;2023-04-01T03:42:05;4.55;;;2.20;;
50900;SDS011;36879;51.416;6.678;2023-04-01T03:44:32;4.07;;;1.95;;
50900;SDS011;36879;51.416;6.678;2023-04-01T03:46:58;5.28;;;2.40;;
50900;SDS011;36879;51.416;6.678;2023-04-01T03:49:24;5.03;;;2.50;;
50900;SDS011;36879;51.416;6.678;2023-04-01T03:51:50;7.65;;;2.00;;
50900;SDS011;36879;51.416;6.678;2023-04-01T03:54:17;7.18;;;2.63;;
50900;SDS011;36879;51.416;6.678;2023-04-01T03:56:45;5.53;;;2.75;;
50900;SDS011;36879;51.416;6.678;2023-04-01T03:59:11;4.18;;;1.98;;
50900;SDS011;36879;51.416;6.678;2023-04-01T04:01:37;6.95;;;3.08;;
50900;SDS011;36879;51.416;6.678;2023-04-01T04:04:03;5.65;;;2.13;;
50900;SDS011;36879;51.416;6.678;2023-04-01T04:06:29;8.07;;;3.28;;
50900;SDS011;36879;51.416;6.678;2023-04-01T04:08:55;6.18;;;2.25;;
50900;SDS011;36879;51.416;6.678;2023-04-01T04:13:47;5.38;;;2.50;;
50900;SDS011;36879;51.416;6.678;2023-04-01T04:16:13;6.40;;;2.63;;
50900;SDS011;36879;51.416;6.678;2023-04-01T04:18:40;3.72;;;2.47;;
50900;SDS011;36879;51.416;6.678;2023-04-01T04:21:06;6.32;;;2.45;;
50900;SDS011;36879;51.416;6.678;2023-04-01T04:23:32;5.72;;;2.42;;
50900;SDS011;36879;51.416;6.678;2023-04-01T04:25:59;4.18;;;2.33;;
50900;SDS011;36879;51.416;6.678;2023-04-01T04:28:26;6.47;;;2.40;;
50900;SDS011;36879;51.416;6.678;2023-04-01T04:30:52;5.55;;;2.28;;
50900;SDS011;36879;51.416;6.678;2023-04-01T04:33:18;3.58;;;2.15;;
50900;SDS011;36879;51.416;6.678;2023-04-01T04:35:44;6.80;;;2.97;;
50900;SDS011;36879;51.416;6.678;2023-04-01T04:38:10;9.23;;;2.60;;
50900;SDS011;36879;51.416;6.678;2023-04-01T04:40:37;7.13;;;3.13;;
50900;SDS011;36879;51.416;6.678;2023-04-01T04:43:03;5.35;;;3.03;;
50900;SDS011;36879;51.416;6.678;2023-04-01T04:45:29;5.13;;;2.70;;
50900;SDS011;36879;51.416;6.678;2023-04-01T04:47:56;6.43;;;3.00;;
50900;SDS011;36879;51.416;6.678;2023-04-01T04:50:22;5.38;;;3.20;;
50900;SDS011;36879;51.416;6.678;2023-04-01T04:52:48;6.18;;;2.97;;
50900;SDS011;36879;51.416;6.678;2023-04-01T04:55:14;5.63;;;2.97;;
50900;SDS011;36879;51.416;6.678;2023-04-01T04:57:40;6.22;;;3.08;;
50900;SDS011;36879;51.416;6.678;2023-04-01T05:00:07;8.55;;;2.88;;
50900;SDS011;36879;51.416;6.678;2023-04-01T05:02:33;5.45;;;2.70;;
50900;SDS011;36879;51.416;6.678;2023-04-01T05:04:59;6.75;;;2.88;;
50900;SDS011;36879;51.416;6.678;2023-04-01T05:07:25;7.03;;;3.50;;
50900;SDS011;36879;51.416;6.678;2023-04-01T05:09:51;4.82;;;2.58;;
50900;SDS011;36879;51.416;6.678;2023-04-01T05:12:17;5.78;;;2.88;;
50900;SDS011;36879;51.416;6.678;2023-04-01T05:14:44;5.93;;;2.88;;
50900;SDS011;36879;51.416;6.678;2023-04-01T05:17:10;6.20;;;3.15;;
50900;SDS011;36879;51.416;6.678;2023-04-01T05:19:37;6.60;;;4.13;;
50900;SDS011;36879;51.416;6.678;2023-04-01T05:22:03;5.03;;;3.53;;
50900;SDS011;36879;51.416;6.678;2023-04-01T05:24:29;7.07;;;3.85;;
50900;SDS011;36879;51.416;6.678;2023-04-01T05:26:55;8.50;;;4.70;;
50900;SDS011;36879;51.416;6.678;2023-04-01T05:29:22;10.38;;;5.32;;
50900;SDS011;36879;51.416;6.678;2023-04-01T05:31:48;13.07;;;5.20;;
50900;SDS011;36879;51.416;6.678;2023-04-01T05:34:14;9.32;;;5.05;;
50900;SDS011;36879;51.416;6.678;2023-04-01T05:36:40;12.95;;;6.97;;
50900;SDS011;36879;51.416;6.678;2023-04-01T05:39:06;12.57;;;6.28;;
50900;SDS011;36879;51.416;6.678;2023-04-01T05:41:34;12.48;;;6.00;;
50900;SDS011;36879;51.416;6.678;2023-04-01T05:44:00;12.27;;;6.80;;
50900;SDS011;36879;51.416;6.678;2023-04-01T05:46:27;11.60;;;6.25;;
50900;SDS011;36879;51.416;6.678;2023-04-01T05:48:53;14.00;;;6.70;;
50900;SDS011;36879;51.416;6.678;2023-04-01T05:51:19;17.83;;;6.75;;
50900;SDS011;36879;51.416;6.678;2023-04-01T05:53:45;16.48;;;7.25;;
50900;SDS011;36879;51.416;6.678;2023-04-01T05:56:11;12.57;;;6.30;;
50900;SDS011;36879;51.416;6.678;2023-04-01T05:58:37;14.45;;;7.13;;
50900;SDS011;36879;51.416;6.678;2023-04-01T06:01:05;11.57;;;6.65;;
50900;SDS011;36879;51.416;6.678;2023-04-01T06:03:31;12.88;;;7.68;;
50900;SDS011;36879;51.416;6.678;2023-04-01T06:05:57;13.10;;;7.50;;
50900;SDS011;36879;51.416;6.678;2023-04-01T06:08:24;14.98;;;7.50;;
50900;SDS011;36879;51.416;6.678;2023-04-01T06:13:28;14.35;;;7.72;;
50900;SDS011;36879;51.416;6.678;2023-04-01T06:16:07;14.50;;;8.18;;
50900;SDS011;36879;51.416;6.678;2023-04-01T06:21:26;12.52;;;7.07;;
50900;SDS011;36879;51.416;6.678;2023-04-01T06:26:30;16.27;;;8.13;;
50900;SDS011;36879;51.416;6.678;2023-04-01T06:29:04;12.65;;;7.47;;
50900;SDS011;36879;51.416;6.678;2023-04-01T06:34:27;13.93;;;8.50;;
50900;SDS011;36879;51.416;6.678;2023-04-01T06:37:03;12.88;;;7.13;;
50900;SDS011;36879;51.416;6.678;2023-04-01T06:42:05;11.55;;;6.70;;
50900;SDS011;36879;51.416;6.678;2023-04-01T06:44:36;11.60;;;6.57;;
50900;SDS011;36879;51.416;6.678;2023-04-01T06:55:32;12.88;;;7.07;;
50900;SDS011;36879;51.416;6.678;2023-04-01T06:57:49;11.40;;;6.88;;
50900;SDS011;36879;51.416;6.678;2023-04-01T07:00:35;11.63;;;6.38;;
50900;SDS011;36879;51.416;6.678;2023-04-01T07:05:30;14.63;;;7.55;;
50900;SDS011;36879;51.416;6.678;2023-04-01T07:07:57;12.38;;;7.60;;
50900;SDS011;36879;51.416;6.678;2023-04-01T07:10:32;11.73;;;6.80;;
50900;SDS011;36879;51.416;6.678;2023-04-01T07:13:02;12.30;;;7.32;;
50900;SDS011;36879;51.416;6.678;2023-04-01T07:15:31;14.35;;;7.40;;
50900;SDS011;36879;51.416;6.678;2023-04-01T07:18:03;13.63;;;8.05;;
50900;SDS011;36879;51.416;6.678;2023-04-01T07:20:31;13.32;;;7.75;;
50900;SDS011;36879;51.416;6.678;2023-04-01T07:22:58;13.38;;;8.20;;
50900;SDS011;36879;51.416;6.678;2023-04-01T07:25:35;13.85;;;7.65;;
50900;SDS011;36879;51.416;6.678;2023-04-01T07:28:03;12.93;;;7.35;;
50900;SDS011;36879;51.416;6.678;2023-04-01T07:30:33;12.75;;;7.60;;
50900;SDS011;36879;51.416;6.678;2023-04-01T07:33:16;13.55;;;8.18;;
50900;SDS011;36879;51.416;6.678;2023-04-01T07:35:46;12.52;;;7.43;;
50900;SDS011;36879;51.416;6.678;2023-04-01T07:41:04;13.55;;;7.82;;
50900;SDS011;36879;51.416;6.678;2023-04-01T07:53:49;16.73;;;8.50;;
50900;SDS011;36879;51.416;6.678;2023-04-01T07:56:25;17.20;;;9.57;;
50900;SDS011;36879;51.416;6.678;2023-04-01T07:59:37;17.13;;;10.20;;
50900;SDS011;36879;51.416;6.678;2023-04-01T08:01:46;23.10;;;11.15;;
50900;SDS011;36879;51.416;6.678;2023-04-01T08:12:16;22.80;;;13.65;;
50900;SDS011;36879;51.416;6.678;2023-04-01T08:17:15;38.85;;;17.13;;
50900;SDS011;36879;51.416;6.678;2023-04-01T08:24:45;13.20;;;7.72;;
50900;SDS011;36879;51.416;6.678;2023-04-01T08:29:56;15.70;;;8.73;;
50900;SDS011;36879;51.416;6.678;2023-04-01T08:32:27;16.25;;;8.18;;
50900;SDS011;36879;51.416;6.678;2023-04-01T08:34:57;14.63;;;8.52;;
50900;SDS011;36879;51.416;6.678;2023-04-01T08:37:26;16.13;;;8.32;;
50900;SDS011;36879;51.416;6.678;2023-04-01T08:39:55;15.25;;;7.97;;
50900;SDS011;36879;51.416;6.678;2023-04-01T08:55:46;16.48;;;9.68;;
50900;SDS011;36879;51.416;6.678;2023-04-01T09:00:54;18.52;;;9.57;;
50900;SDS011;36879;51.416;6.678;2023-04-01T09:08:51;23.83;;;12.00;;
50900;SDS011;36879;51.416;6.678;2023-04-01T09:35:22;32.97;;;15.73;;
50900;SDS011;36879;51.416;6.678;2023-04-01T09:37:53;35.10;;;15.48;;
50900;SDS011;36879;51.416;6.678;2023-04-01T09:43:05;31.17;;;16.92;;
50900;SDS011;36879;51.416;6.678;2023-04-01T09:45:37;28.70;;;15.32;;
50900;SDS011;36879;51.416;6.678;2023-04-01T09:48:21;34.22;;;16.08;;
50900;SDS011;36879;51.416;6.678;2023-04-01T09:59:01;45.53;;;21.50;;
50900;SDS011;36879;51.416;6.678;2023-04-01T10:12:22;33.50;;;17.27;;
50900;SDS011;36879;51.416;6.678;2023-04-01T10:15:09;33.58;;;17.52;;
50900;SDS011;36879;51.416;6.678;2023-04-01T10:38:19;32.88;;;17.48;;
50900;SDS011;36879;51.416;6.678;2023-04-01T10:59:00;42.97;;;20.33;;
50900;SDS011;36879;51.416;6.678;2023-04-01T11:01:41;33.80;;;19.17;;
50900;SDS011;36879;51.416;6.678;2023-04-01T11:25:08;43.83;;;21.25;;
50900;SDS011;36879;51.416;6.678;2023-04-01T11:28:01;46.42;;;22.65;;
50900;SDS011;36879;51.416;6.678;2023-04-01T11:33:07;38.67;;;19.92;;
50900;SDS011;36879;51.416;6.678;2023-04-01T11:46:34;38.80;;;19.33;;
50900;SDS011;36879;51.416;6.678;2023-04-01T11:50:10;37.90;;;19.40;;
50900;SDS011;36879;51.416;6.678;2023-04-01T11:52:01;38.90;;;18.45;;
50900;SDS011;36879;51.416;6.678;2023-04-01T11:54:36;38.85;;;20.27;;
50900;SDS011;36879;51.416;6.678;2023-04-01T12:07:13;26.90;;;13.85;;
50900;SDS011;36879;51.416;6.678;2023-04-01T12:12:38;26.58;;;14.68;;
50900;SDS011;36879;51.416;6.678;2023-04-01T12:21:08;25.42;;;12.50;;
50900;SDS011;36879;51.416;6.678;2023-04-01T12:26:19;32.42;;;15.65;;
50900;SDS011;36879;51.416;6.678;2023-04-01T12:31:22;30.20;;;15.23;;
50900;SDS011;36879;51.416;6.678;2023-04-01T12:34:15;33.13;;;16.50;;
50900;SDS011;36879;51.416;6.678;2023-04-01T12:57:14;28.92;;;15.05;;
50900;SDS011;36879;51.416;6.678;2023-04-01T12:59:50;28.00;;;14.75;;
50900;SDS011;36879;51.416;6.678;2023-04-01T13:02:36;28.15;;;14.43;;
50900;SDS011;36879;51.416;6.678;2023-04-01T13:05:17;27.63;;;14.05;;
50900;SDS011;36879;51.416;6.678;2023-04-01T13:13:01;26.60;;;14.15;;
50900;SDS011;36879;51.416;6.678;2023-04-01T13:18:08;27.10;;;13.68;;
50900;SDS011;36879;51.416;6.678;2023-04-01T13:20:41;26.90;;;13.40;;
50900;SDS011;36879;51.416;6.678;2023-04-01T13:28:20;30.25;;;13.77;;
50900;SDS011;36879;51.416;6.678;2023-04-01T13:49:08;32.13;;;14.43;;
50900;SDS011;36879;51.416;6.678;2023-04-01T14:08:13;22.08;;;12.05;;
50900;SDS011;36879;51.416;6.678;2023-04-01T14:12:58;24.10;;;12.77;;
50900;SDS011;36879;51.416;6.678;2023-04-01T14:20:25;20.25;;;11.50;;
50900;SDS011;36879;51.416;6.678;2023-04-01T14:25:36;23.00;;;11.90;;
50900;SDS011;36879;51.416;6.678;2023-04-01T14:31:09;21.23;;;12.18;;
50900;SDS011;36879;51.416;6.678;2023-04-01T14:36:27;20.77;;;10.45;;
50900;SDS011;36879;51.416;6.678;2023-04-01T14:38:59;17.08;;;10.18;;
50900;SDS011;36879;51.416;6.678;2023-04-01T14:42:16;22.77;;;9.93;;
50900;SDS011;36879;51.416;6.678;2023-04-01T14:44:22;20.02;;;9.93;;
50900;SDS011;36879;51.416;6.678;2023-04-01T14:49:23;20.60;;;11.38;;
50900;SDS011;36879;51.416;6.678;2023-04-01T14:51:50;20.70;;;11.05;;
50900;SDS011;36879;51.416;6.678;2023-04-01T14:54:18;20.17;;;10.57;;
50900;SDS011;36879;51.416;6.678;2023-04-01T14:56:49;19.27;;;10.73;;
50900;SDS011;36879;51.416;6.678;2023-04-01T15:04:27;19.25;;;10.50;;
50900;SDS011;36879;51.416;6.678;2023-04-01T15:11:56;29.15;;;11.40;;
50900;SDS011;36879;51.416;6.678;2023-04-01T15:17:00;18.42;;;9.95;;
50900;SDS011;36879;51.416;6.678;2023-04-01T15:35:23;16.73;;;8.23;;
50900;SDS011;36879;51.416;6.678;2023-04-01T15:43:19;12.60;;;6.43;;
50900;SDS011;36879;51.416;6.678;2023-04-01T15:48:17;13.32;;;7.57;;
50900;SDS011;36879;51.416;6.678;2023-04-01T15:56:13;15.40;;;8.15;;
50900;SDS011;36879;51.416;6.678;2023-04-01T16:03:57;12.13;;;6.70;;
50900;SDS011;36879;51.416;6.678;2023-04-01T16:11:53;11.80;;;7.85;;
50900;SDS011;36879;51.416;6.678;2023-04-01T16:14:44;14.45;;;7.90;;
50900;SDS011;36879;51.416;6.678;2023-04-01T16:17:25;14.75;;;8.52;;
50900;SDS011;36879;51.416;6.678;2023-04-01T16:19:59;14.77;;;8.30;;
50900;SDS011;36879;51.416;6.678;2023-04-01T16:22:37;14.35;;;8.23;;
50900;SDS011;36879;51.416;6.678;2023-04-01T16:27:50;15.32;;;9.45;;
50900;SDS011;36879;51.416;6.678;2023-04-01T16:35:59;21.70;;;12.48;;
50900;SDS011;36879;51.416;6.678;2023-04-01T16:43:30;23.40;;;13.02;;
50900;SDS011;36879;51.416;6.678;2023-04-01T16:46:15;21.38;;;12.43;;
50900;SDS011;36879;51.416;6.678;2023-04-01T16:51:37;22.10;;;12.18;;
50900;SDS011;36879;51.416;6.678;2023-04-01T16:56:45;25.70;;;14.00;;
50900;SDS011;36879;51.416;6.678;2023-04-01T16:59:19;25.88;;;14.07;;
50900;SDS011;36879;51.416;6.678;2023-04-01T17:01:53;23.52;;;12.63;;
50900;SDS011;36879;51.416;6.678;2023-04-01T17:04:30;21.55;;;12.05;;
50900;SDS011;36879;51.416;6.678;2023-04-01T17:17:09;24.30;;;13.55;;
50900;SDS011;36879;51.416;6.678;2023-04-01T17:19:56;23.80;;;13.45;;
50900;SDS011;36879;51.416;6.678;2023-04-01T17:30:30;31.02;;;15.20;;
50900;SDS011;36879;51.416;6.678;2023-04-01T17:41:24;30.77;;;16.33;;
50900;SDS011;36879;51.416;6.678;2023-04-01T17:43:58;32.80;;;16.38;;
50900;SDS011;36879;51.416;6.678;2023-04-01T18:00:24;30.92;;;16.85;;
50900;SDS011;36879;51.416;6.678;2023-04-01T18:17:51;34.70;;;17.23;;
50900;SDS011;36879;51.416;6.678;2023-04-01T18:20:32;33.57;;;18.23;;
50900;SDS011;36879;51.416;6.678;2023-04-01T18:23:02;37.13;;;20.25;;
50900;SDS011;36879;51.416;6.678;2023-04-01T18:25:39;38.35;;;19.05;;
50900;SDS011;36879;51.416;6.678;2023-04-01T18:30:57;39.10;;;18.83;;
50900;SDS011;36879;51.416;6.678;2023-04-01T18:33:31;34.45;;;18.35;;
50900;SDS011;36879;51.416;6.678;2023-04-01T18:36:13;44.05;;;21.83;;
50900;SDS011;36879;51.416;6.678;2023-04-01T18:38:46;36.78;;;19.20;;
50900;SDS011;36879;51.416;6.678;2023-04-01T18:43:48;40.58;;;20.50;;
50900;SDS011;36879;51.416;6.678;2023-04-01T18:51:35;40.20;;;21.73;;
50900;SDS011;36879;51.416;6.678;2023-04-01T18:56:48;40.63;;;21.20;;
50900;SDS011;36879;51.416;6.678;2023-04-01T18:59:28;45.05;;;21.98;;
50900;SDS011;36879;51.416;6.678;2023-04-01T19:01:59;43.53;;;21.45;;
50900;SDS011;36879;51.416;6.678;2023-04-01T19:04:31;43.53;;;21.35;;
50900;SDS011;36879;51.416;6.678;2023-04-01T19:07:00;47.53;;;23.60;;
50900;SDS011;36879;51.416;6.678;2023-04-01T19:09:31;44.22;;;21.65;;
50900;SDS011;36879;51.416;6.678;2023-04-01T19:14:55;40.20;;;20.45;;
50900;SDS011;36879;51.416;6.678;2023-04-01T19:17:35;37.72;;;20.10;;
50900;SDS011;36879;51.416;6.678;2023-04-01T19:27:46;34.70;;;18.02;;
50900;SDS011;36879;51.416;6.678;2023-04-01T19:32:47;34.83;;;19.02;;
50900;SDS011;36879;51.416;6.678;2023-04-01T19:35:38;32.75;;;17.55;;
50900;SDS011;36879;51.416;6.678;2023-04-01T19:38:10;29.42;;;17.52;;
50900;SDS011;36879;51.416;6.678;2023-04-01T19:51:16;23.52;;;13.23;;
50900;SDS011;36879;51.416;6.678;2023-04-01T19:53:49;18.63;;;11.43;;
50900;SDS011;36879;51.416;6.678;2023-04-01T19:58:57;15.18;;;10.57;;
50900;SDS011;36879;51.416;6.678;2023-04-01T20:03:54;24.20;;;14.30;;
50900;SDS011;36879;51.416;6.678;2023-04-01T20:11:28;14.38;;;8.80;;
50900;SDS011;36879;51.416;6.678;2023-04-01T20:19:12;16.02;;;10.38;;
50900;SDS011;36879;51.416;6.678;2023-04-01T20:24:28;18.58;;;10.73;;
50900;SDS011;36879;51.416;6.678;2023-04-01T20:27:37;17.70;;;11.60;;
50900;SDS011;36879;51.416;6.678;2023-04-01T20:29:40;21.90;;;12.30;;
50900;SDS011;36879;51.416;6.678;2023-04-01T20:37:30;20.23;;;11.57;;
50900;SDS011;36879;51.416;6.678;2023-04-01T20:45:20;17.40;;;9.43;;
50900;SDS011;36879;51.416;6.678;2023-04-01T20:48:37;24.50;;;14.07;;
50900;SDS011;36879;51.416;6.678;2023-04-01T20:50:34;32.05;;;17.08;;
50900;SDS011;36879;51.416;6.678;2023-04-01T20:56:17;34.28;;;18.63;;
50900;SDS011;36879;51.416;6.678;2023-04-01T21:04:04;22.52;;;12.32;;
50900;SDS011;36879;51.416;6.678;2023-04-01T21:09:08;12.48;;;6.68;;
50900;SDS011;36879;51.416;6.678;2023-04-01T21:16:43;12.52;;;7.95;;
50900;SDS011;36879;51.416;6.678;2023-04-01T21:19:16;13.10;;;7.68;;
50900;SDS011;36879;51.416;6.678;2023-04-01T21:29:53;20.77;;;13.82;;
50900;SDS011;36879;51.416;6.678;2023-04-01T21:47:27;17.23;;;10.00;;
50900;SDS011;36879;51.416;6.678;2023-04-01T21:50:05;23.20;;;12.27;;
50900;SDS011;36879;51.416;6.678;2023-04-01T21:55:37;23.17;;;12.88;;
50900;SDS011;36879;51.416;6.678;2023-04-01T22:01:53;23.05;;;14.15;;
50900;SDS011;36879;51.416;6.678;2023-04-01T22:06:34;31.80;;;16.02;;
50900;SDS011;36879;51.416;6.678;2023-04-01T22:09:09;21.67;;;13.55;;
50900;SDS011;36879;51.416;6.678;2023-04-01T22:14:17;19.00;;;11.95;;
50900;SDS011;36879;51.416;6.678;2023-04-01T22:21:41;18.08;;;10.60;;
50900;SDS011;36879;51.416;6.678;2023-04-01T22:27:03;14.95;;;8.90;;
50900;SDS011;36879;51.416;6.678;2023-04-01T22:29:33;15.10;;;9.15;;
50900;SDS011;36879;51.416;6.678;2023-04-01T22:32:12;14.32;;;8.18;;
50900;SDS011;36879;51.416;6.678;2023-04-01T22:40:00;14.63;;;7.40;;
50900;SDS011;36879;51.416;6.678;2023-04-01T22:47:56;11.57;;;6.57;;
50900;SDS011;36879;51.416;6.678;2023-04-01T22:52:59;12.48;;;7.60;;
50900;SDS011;36879;51.416;6.678;2023-04-01T22:55:29;13.55;;;8.00;;
50900;SDS011;36879;51.416;6.678;2023-04-01T22:57:59;13.35;;;7.40;;
50900;SDS011;36879;51.416;6.678;2023-04-01T23:00:40;12.05;;;7.78;;
50900;SDS011;36879;51.416;6.678;2023-04-01T23:03:17;12.55;;;6.65;;
50900;SDS011;36879;51.416;6.678;2023-04-01T23:05:52;12.13;;;6.20;;
50900;SDS011;36879;51.416;6.678;2023-04-01T23:10:51;10.43;;;7.10;;
50900;SDS011;36879;51.416;6.678;2023-04-01T23:13:20;12.88;;;6.75;;
50900;SDS011;36879;51.416;6.678;2023-04-01T23:15:48;11.10;;;7.45;;
50900;SDS011;36879;51.416;6.678;2023-04-01T23:21:13;15.82;;;10.10;;
50900;SDS011;36879;51.416;6.678;2023-04-01T23:29:03;17.38;;;9.18;;
50900;SDS011;36879;51.416;6.678;2023-04-01T23:33:58;13.27;;;7.55;;
50900;SDS011;36879;51.416;6.678;2023-04-01T23:36:25;13.50;;;7.13;;
50900;SDS011;36879;51.416;6.678;2023-04-01T23:38:51;14.52;;;7.43;;
50900;SDS011;36879;51.416;6.678;2023-04-01T23:41:19;10.15;;;6.75;;
50900;SDS011;36879;51.416;6.678;2023-04-01T23:43:46;10.77;;;6.55;;
50900;SDS011;36879;51.416;6.678;2023-04-01T23:46:16;11.82;;;6.60;;
50900;SDS011;36879;51.416;6.678;2023-04-01T23:48:43;7.88;;;5.15;;
50900;SDS011;36879;51.416;6.678;2023-04-01T23:51:17;9.23;;;6.32;;
50900;SDS011;36879;51.416;6.678;2023-04-01T23:53:44;7.70;;;4.85;;
50900;SDS011;36879;51.416;6.678;2023-04-01T23:56:11;9.25;;;5.35;;
